Terminal Aerodrome Forecast
Issued by NWS Bismarck, ND

Home | Current Version | Previous Version | Text Only | Print | Product List | Glossary Off
Versions: 1 2 3 4 5 6 7 8 9 10 11 12 13 14 15 16

000
FTUS43 KBIS 240331 AAA
TAFISN
TAF AMD
KISN 240331Z 2404/2424 15015KT P6SM SKC
     FM240600 15007KT P6SM FEW120 FEW250 WS020/16040KT
     FM241300 17011KT P6SM FEW110 FEW250
     FM241700 22013KT P6SM FEW100 FEW200
     FM242000 32013KT P6SM SCT250=

USA.gov is the U.S. government's official web portal to all federal, state and local government web resources and services.